Time;durP1;ratioP1;P1;durP2;ratioP2;P2;SDS_P1;SDS_P2;PMS_P1;PMS_P2;Temp;Humidity;BMP_temperature;BMP_pressure;BME280_temperature;BME280_humidity;BME280_pressure;Samples;Min_cycle;Max_cycle;Signal;HPM_P1;HPM_P2
2021/09/03 00:00:20;;;;;;;8.97;7.43;;;15.70;99.90;;;;;;5014979;28;20223;-53
2021/09/03 00:02:47;;;;;;;7.90;7.20;;;15.70;99.90;;;;;;5014825;28;20745;-51
2021/09/03 00:05:19;;;;;;;7.20;6.50;;;15.70;99.90;;;;;;5014669;28;20488;-51
2021/09/03 00:07:45;;;;;;;8.17;7.37;;;15.60;99.90;;;;;;5014791;28;20163;-49
2021/09/03 00:10:13;;;;;;;7.87;6.83;;;15.70;99.90;;;;;;5014469;28;20410;-51
2021/09/03 00:12:39;;;;;;;8.50;7.60;;;15.60;99.90;;;;;;5013780;28;20431;-50
2021/09/03 00:15:08;;;;;;;8.77;7.97;;;15.50;99.90;;;;;;5014348;28;20446;-49
2021/09/03 00:17:34;;;;;;;7.77;6.97;;;15.50;99.90;;;;;;5014929;28;20413;-49
2021/09/03 00:19:59;;;;;;;11.10;7.67;;;15.40;99.90;;;;;;5014267;28;20449;-51
2021/09/03 00:22:25;;;;;;;10.00;6.70;;;15.50;99.90;;;;;;5014147;28;20251;-48
2021/09/03 00:24:51;;;;;;;8.43;7.60;;;15.50;99.90;;;;;;5015052;28;20177;-49
2021/09/03 00:27:16;;;;;;;7.57;6.80;;;15.50;99.90;;;;;;5015985;28;20410;-49
2021/09/03 00:29:42;;;;;;;7.33;6.63;;;15.40;99.90;;;;;;5016068;28;20203;-48
2021/09/03 00:32:07;;;;;;;8.27;7.40;;;15.50;99.90;;;;;;5015291;28;20175;-50
2021/09/03 00:34:33;;;;;;;8.87;7.97;;;15.40;99.90;;;;;;5015250;28;20199;-49
2021/09/03 00:36:59;;;;;;;8.20;7.37;;;15.30;99.90;;;;;;5015496;28;20173;-49
2021/09/03 00:39:24;;;;;;;8.97;7.60;;;15.30;99.90;;;;;;5015201;28;20202;-48
2021/09/03 00:41:50;;;;;;;7.20;6.50;;;15.30;99.90;;;;;;5014680;28;20175;-49
2021/09/03 00:44:15;;;;;;;8.63;7.43;;;15.20;99.90;;;;;;5014339;28;20563;-49
2021/09/03 00:46:41;;;;;;;7.20;6.50;;;15.20;99.90;;;;;;5013446;28;20175;-51
2021/09/03 00:49:07;;;;;;;8.10;7.30;;;15.30;99.90;;;;;;5014213;28;20175;-50
2021/09/03 00:51:32;;;;;;;7.80;7.10;;;15.20;99.90;;;;;;5014238;28;20180;-49
2021/09/03 00:53:58;;;;;;;7.77;7.07;;;15.30;99.90;;;;;;5013600;28;20300;-51
2021/09/03 00:56:24;;;;;;;7.50;6.80;;;15.30;99.90;;;;;;5013766;28;20225;-51
2021/09/03 00:58:49;;;;;;;8.10;7.30;;;15.30;99.90;;;;;;5013039;28;20235;-50
2021/09/03 01:01:17;;;;;;;8.47;7.67;;;15.40;99.90;;;;;;5013538;28;20167;-50
2021/09/03 01:03:44;;;;;;;8.13;7.37;;;15.30;99.90;;;;;;5013454;28;20195;-52
2021/09/03 01:06:10;;;;;;;10.70;7.77;;;15.20;99.90;;;;;;5013493;28;20496;-51
2021/09/03 01:08:35;;;;;;;8.50;7.60;;;15.20;99.90;;;;;;5012841;28;20488;-53
2021/09/03 01:11:01;;;;;;;9.97;7.47;;;15.20;99.90;;;;;;5013429;28;20221;-50
2021/09/03 01:13:27;;;;;;;8.40;7.50;;;15.20;99.90;;;;;;5013010;28;20735;-50
2021/09/03 01:15:53;;;;;;;8.13;7.17;;;15.20;99.90;;;;;;5013399;28;20173;-51
2021/09/03 01:18:19;;;;;;;7.13;6.33;;;15.20;99.90;;;;;;5013547;28;20176;-49
2021/09/03 01:20:45;;;;;;;8.03;7.23;;;15.20;99.90;;;;;;5013341;28;20203;-50
2021/09/03 01:23:11;;;;;;;7.30;6.70;;;15.20;99.90;;;;;;5013639;28;20560;-53
2021/09/03 01:25:36;;;;;;;8.60;7.33;;;15.10;99.90;;;;;;5013721;28;20866;-57
2021/09/03 01:28:02;;;;;;;8.17;7.37;;;15.00;99.90;;;;;;5012960;28;20495;-56
2021/09/03 01:30:28;;;;;;;9.10;7.93;;;15.00;99.90;;;;;;5013852;28;20170;-58
2021/09/03 01:32:53;;;;;;;8.67;7.50;;;15.00;99.90;;;;;;5013250;28;20482;-55
2021/09/03 01:35:19;;;;;;;7.93;7.20;;;15.00;99.90;;;;;;5013222;28;20185;-49
2021/09/03 01:37:45;;;;;;;10.57;8.37;;;15.00;99.90;;;;;;5013157;28;20181;-52
2021/09/03 01:40:11;;;;;;;8.43;7.63;;;14.90;99.90;;;;;;5022977;28;20204;-49
2021/09/03 01:42:37;;;;;;;9.90;8.90;;;14.90;99.90;;;;;;5012584;28;20658;-49
2021/09/03 01:45:04;;;;;;;6.70;6.10;;;15.00;99.90;;;;;;5013626;28;20413;-49
2021/09/03 01:47:30;;;;;;;7.57;6.87;;;15.10;99.90;;;;;;5013320;28;20413;-49
2021/09/03 01:49:56;;;;;;;7.80;6.70;;;15.10;99.90;;;;;;5013042;28;20469;-49
2021/09/03 01:52:21;;;;;;;7.43;6.60;;;15.10;99.90;;;;;;5012974;28;20262;-54
2021/09/03 01:54:47;;;;;;;7.57;6.87;;;15.10;99.90;;;;;;5059023;23;20225;-62
2021/09/03 01:57:13;;;;;;;8.83;7.93;;;15.10;99.90;;;;;;5050991;28;20247;-61
2021/09/03 01:59:38;;;;;;;9.17;8.00;;;15.00;99.90;;;;;;5041117;28;20231;-61
2021/09/03 02:02:04;;;;;;;9.43;8.10;;;14.90;99.90;;;;;;5049567;28;20739;-59
2021/09/03 02:04:30;;;;;;;8.00;7.30;;;14.90;99.90;;;;;;5052571;28;20190;-59
2021/09/03 02:06:55;;;;;;;6.83;6.13;;;14.90;99.90;;;;;;5052645;28;20168;-60
2021/09/03 02:09:21;;;;;;;8.50;7.70;;;14.90;99.90;;;;;;5052545;28;20168;-60
2021/09/03 02:11:47;;;;;;;9.23;7.87;;;14.90;99.90;;;;;;5052723;28;20211;-60
2021/09/03 02:14:13;;;;;;;8.87;7.97;;;14.90;99.90;;;;;;5051949;28;20666;-60
2021/09/03 02:16:39;;;;;;;7.77;6.97;;;14.90;99.90;;;;;;5052437;28;20408;-60
2021/09/03 02:19:05;;;;;;;8.40;7.50;;;14.90;99.90;;;;;;5053256;28;20247;-60
2021/09/03 02:21:31;;;;;;;9.20;8.07;;;14.80;99.90;;;;;;5056186;28;20162;-60
2021/09/03 02:23:56;;;;;;;9.87;7.93;;;14.90;99.90;;;;;;5056033;28;20429;-60
2021/09/03 02:26:22;;;;;;;8.60;7.10;;;14.80;99.90;;;;;;5056404;28;20180;-60
2021/09/03 02:28:48;;;;;;;9.70;8.63;;;14.80;99.90;;;;;;5055633;28;20174;-60
2021/09/03 02:31:14;;;;;;;9.57;8.57;;;14.70;99.90;;;;;;5056112;28;20178;-60
2021/09/03 02:33:39;;;;;;;9.03;8.13;;;14.70;99.90;;;;;;5056205;28;20321;-60
2021/09/03 02:36:05;;;;;;;9.50;8.53;;;14.60;99.90;;;;;;5055962;28;20234;-60
2021/09/03 02:38:30;;;;;;;8.10;7.30;;;14.60;99.90;;;;;;5055431;28;20217;-60
2021/09/03 02:40:56;;;;;;;9.97;8.40;;;14.70;99.90;;;;;;5055977;28;20195;-60
2021/09/03 02:43:21;;;;;;;9.23;8.20;;;14.70;99.90;;;;;;5055637;28;20187;-59
2021/09/03 02:45:47;;;;;;;9.73;8.20;;;14.70;99.90;;;;;;5055945;28;20162;-60
2021/09/03 02:48:13;;;;;;;9.90;8.40;;;14.70;99.90;;;;;;5055603;28;20167;-60
2021/09/03 02:50:38;;;;;;;9.40;8.60;;;14.70;99.90;;;;;;5055862;28;20170;-60
2021/09/03 02:53:04;;;;;;;8.80;8.00;;;14.60;99.90;;;;;;5055791;28;20171;-62
2021/09/03 02:55:29;;;;;;;9.00;8.20;;;14.60;99.90;;;;;;5054653;28;20157;-60
2021/09/03 02:57:56;;;;;;;8.87;7.97;;;14.60;99.90;;;;;;5054903;28;20649;-60
2021/09/03 03:00:22;;;;;;;8.80;7.77;;;14.50;99.90;;;;;;5055226;28;20598;-59
2021/09/03 03:02:48;;;;;;;9.00;8.10;;;14.50;99.90;;;;;;5055558;28;20398;-60
2021/09/03 03:05:13;;;;;;;9.60;8.10;;;14.50;99.90;;;;;;5055545;28;20537;-60
2021/09/03 03:07:39;;;;;;;8.87;8.07;;;14.50;99.90;;;;;;5055197;28;20340;-60
2021/09/03 03:10:06;;;;;;;9.10;8.23;;;14.50;99.90;;;;;;5055241;28;20168;-60
2021/09/03 03:12:32;;;;;;;9.50;8.50;;;14.40;99.90;;;;;;5055203;28;20260;-58
2021/09/03 03:14:57;;;;;;;11.03;8.63;;;14.40;99.90;;;;;;5054804;28;20467;-60
2021/09/03 03:17:24;;;;;;;9.50;8.03;;;14.40;99.90;;;;;;5055361;28;20178;-60
2021/09/03 03:19:50;;;;;;;10.47;8.60;;;14.30;99.90;;;;;;5055247;28;20293;-59
2021/09/03 03:22:16;;;;;;;10.43;7.90;;;14.30;99.90;;;;;;5055209;28;20434;-59
2021/09/03 03:24:41;;;;;;;10.00;8.87;;;14.30;99.90;;;;;;5054820;28;20189;-59
2021/09/03 03:27:08;;;;;;;10.27;9.23;;;14.30;99.90;;;;;;5054868;28;20406;-58
2021/09/03 03:29:33;;;;;;;13.03;10.07;;;14.30;99.90;;;;;;5053378;28;20179;-60
2021/09/03 03:31:59;;;;;;;8.33;7.53;;;14.30;99.90;;;;;;5054230;28;20471;-59
2021/09/03 03:34:25;;;;;;;12.87;8.43;;;14.20;99.90;;;;;;5054641;28;20560;-60
2021/09/03 03:36:50;;;;;;;9.83;8.20;;;14.20;99.90;;;;;;5055434;28;20686;-59
2021/09/03 03:39:16;;;;;;;9.03;8.13;;;14.20;99.90;;;;;;5054551;28;20192;-60
2021/09/03 03:41:41;;;;;;;9.80;8.20;;;14.20;99.90;;;;;;5054549;28;20605;-60
2021/09/03 03:44:07;;;;;;;9.10;8.20;;;14.20;99.90;;;;;;5054038;28;20214;-59
2021/09/03 03:46:33;;;;;;;13.10;9.83;;;14.20;99.90;;;;;;5054716;28;20540;-60
2021/09/03 03:48:59;;;;;;;11.37;10.20;;;14.20;99.90;;;;;;5054446;28;20176;-60
2021/09/03 03:51:24;;;;;;;12.20;10.00;;;14.10;99.90;;;;;;5054380;28;20172;-58
2021/09/03 03:53:50;;;;;;;9.73;7.80;;;14.10;99.90;;;;;;5054095;28;20558;-60
2021/09/03 03:56:16;;;;;;;8.47;7.60;;;14.10;99.90;;;;;;5054301;28;20173;-59
2021/09/03 03:58:43;;;;;;;8.60;7.70;;;14.00;99.90;;;;;;5053628;28;20189;-58
2021/09/03 04:01:08;;;;;;;9.07;8.23;;;13.90;99.90;;;;;;5054991;28;20889;-60
2021/09/03 04:03:34;;;;;;;11.77;8.20;;;14.00;99.90;;;;;;5054390;28;20414;-59
2021/09/03 04:06:00;;;;;;;9.33;8.43;;;14.00;99.90;;;;;;5054065;28;20188;-59
2021/09/03 04:08:25;;;;;;;12.77;9.40;;;14.00;99.90;;;;;;5054320;28;20190;-59
2021/09/03 04:10:51;;;;;;;10.50;9.40;;;14.00;99.90;;;;;;5054042;28;20182;-61
2021/09/03 04:13:17;;;;;;;9.77;8.87;;;13.90;99.90;;;;;;5053924;28;20218;-59
2021/09/03 04:15:42;;;;;;;10.53;9.40;;;13.90;99.90;;;;;;5054000;28;20178;-58
2021/09/03 04:18:08;;;;;;;9.40;8.40;;;13.90;99.90;;;;;;5054035;28;20177;-61
2021/09/03 04:20:33;;;;;;;8.57;7.70;;;14.00;99.90;;;;;;5052796;28;20198;-57
2021/09/03 04:22:59;;;;;;;10.03;8.87;;;13.90;99.90;;;;;;5053629;28;20179;-60
2021/09/03 04:25:25;;;;;;;9.47;8.47;;;13.90;99.90;;;;;;5053685;28;20552;-60
2021/09/03 04:27:51;;;;;;;9.67;8.07;;;13.90;99.90;;;;;;5052117;28;20174;-58
2021/09/03 04:30:17;;;;;;;9.33;8.33;;;13.80;99.90;;;;;;5053304;28;20186;-60
2021/09/03 04:32:43;;;;;;;8.97;8.10;;;13.80;99.90;;;;;;5052380;28;20178;-58
2021/09/03 04:35:09;;;;;;;10.23;8.67;;;13.80;99.90;;;;;;5053478;28;20243;-60
2021/09/03 04:37:40;;;;;;;10.03;9.00;;;13.80;99.90;;;;;;5053492;28;20410;-60
2021/09/03 04:40:06;;;;;;;10.13;8.80;;;13.80;99.90;;;;;;5053617;28;20456;-60
2021/09/03 04:42:32;;;;;;;9.70;8.70;;;13.80;99.90;;;;;;5052755;28;20400;-60
2021/09/03 04:44:57;;;;;;;10.43;9.43;;;13.80;99.90;;;;;;5053277;28;20437;-59
2021/09/03 04:47:23;;;;;;;12.17;9.47;;;13.90;99.90;;;;;;5053122;28;20173;-60
2021/09/03 04:49:48;;;;;;;10.20;9.20;;;13.80;99.90;;;;;;5053357;28;20170;-59
2021/09/03 04:52:14;;;;;;;9.10;8.20;;;13.90;99.90;;;;;;5052014;28;20231;-61
2021/09/03 04:54:39;;;;;;;9.30;8.13;;;13.80;99.90;;;;;;5052992;28;20276;-61
2021/09/03 04:57:05;;;;;;;10.23;8.67;;;13.80;99.90;;;;;;5053551;28;20265;-61
2021/09/03 04:59:30;;;;;;;11.37;9.60;;;13.80;99.90;;;;;;5053096;28;20190;-58
2021/09/03 05:01:56;;;;;;;9.60;8.60;;;13.80;99.90;;;;;;5053669;28;20190;-61
2021/09/03 05:04:22;;;;;;;11.27;9.20;;;13.80;99.90;;;;;;5052708;28;20204;-59
2021/09/03 05:06:47;;;;;;;10.13;9.13;;;13.80;99.90;;;;;;5053411;28;20160;-60
2021/09/03 05:09:13;;;;;;;9.20;8.30;;;13.80;99.90;;;;;;5052887;28;20174;-60
2021/09/03 05:11:38;;;;;;;10.70;9.70;;;13.90;99.90;;;;;;5053110;28;20204;-60
2021/09/03 05:14:04;;;;;;;10.10;8.70;;;13.90;99.90;;;;;;5052691;28;20197;-59
2021/09/03 05:16:30;;;;;;;11.90;9.60;;;13.90;99.90;;;;;;5053070;28;20171;-59
2021/09/03 05:18:55;;;;;;;11.53;9.20;;;13.90;99.90;;;;;;5052905;28;20194;-61
2021/09/03 05:21:21;;;;;;;9.57;8.67;;;13.90;99.90;;;;;;5052935;28;20176;-61
2021/09/03 05:23:46;;;;;;;10.63;8.60;;;13.80;99.90;;;;;;5053170;28;20278;-61
2021/09/03 05:26:12;;;;;;;9.03;8.17;;;13.80;99.90;;;;;;5053174;28;20173;-61
2021/09/03 05:28:38;;;;;;;10.97;9.77;;;13.90;99.90;;;;;;5053039;28;20159;-58
2021/09/03 05:31:04;;;;;;;10.50;8.90;;;13.90;99.90;;;;;;5051227;28;20674;-60
2021/09/03 05:33:29;;;;;;;9.87;8.83;;;13.90;99.90;;;;;;5052508;28;20441;-59
2021/09/03 05:35:55;;;;;;;9.73;8.70;;;13.90;99.90;;;;;;5052855;28;20175;-60
2021/09/03 05:38:21;;;;;;;10.50;8.37;;;14.00;99.90;;;;;;5052825;28;20234;-60
2021/09/03 05:40:47;;;;;;;9.30;8.40;;;14.10;99.90;;;;;;5053739;28;20214;-61
2021/09/03 05:43:12;;;;;;;8.97;8.10;;;14.10;99.90;;;;;;5052848;28;20563;-60
2021/09/03 05:45:38;;;;;;;11.20;10.20;;;14.10;99.90;;;;;;5052674;28;20538;-60
2021/09/03 05:48:03;;;;;;;11.13;8.20;;;14.10;99.90;;;;;;5052701;28;20167;-60
2021/09/03 05:50:30;;;;;;;9.17;8.27;;;14.20;99.90;;;;;;5052626;28;20173;-60
2021/09/03 05:52:56;;;;;;;11.33;8.60;;;14.20;99.90;;;;;;5052450;28;20180;-60
2021/09/03 05:55:22;;;;;;;9.43;8.37;;;14.30;99.90;;;;;;5055458;28;20401;-60
2021/09/03 05:57:51;;;;;;;11.47;9.93;;;14.30;99.90;;;;;;5056375;28;20401;-60
2021/09/03 06:00:17;;;;;;;11.13;9.93;;;14.30;99.90;;;;;;5056188;28;20198;-60
2021/09/03 06:02:42;;;;;;;9.63;8.47;;;14.40;99.90;;;;;;5056031;28;20407;-60
2021/09/03 06:05:08;;;;;;;10.07;9.07;;;14.40;99.90;;;;;;5056037;28;20186;-60
2021/09/03 06:07:34;;;;;;;9.47;8.50;;;14.40;99.90;;;;;;5056309;28;20170;-60
2021/09/03 06:09:59;;;;;;;11.20;10.00;;;14.50;99.90;;;;;;5056212;28;20406;-60
2021/09/03 06:12:25;;;;;;;11.07;9.67;;;14.50;99.90;;;;;;5056828;28;20220;-59
2021/09/03 06:14:50;;;;;;;10.40;8.70;;;14.60;99.90;;;;;;5056089;28;20190;-60
2021/09/03 06:17:17;;;;;;;10.70;9.70;;;14.60;99.90;;;;;;5056737;28;20179;-60
2021/09/03 06:19:44;;;;;;;10.27;9.27;;;14.70;99.90;;;;;;5056095;28;20198;-60
2021/09/03 06:22:09;;;;;;;11.17;10.03;;;14.70;99.90;;;;;;5056323;28;20407;-60
2021/09/03 06:24:35;;;;;;;9.17;8.30;;;14.90;99.90;;;;;;5055967;28;20477;-60
2021/09/03 06:27:06;;;;;;;12.80;8.60;;;14.90;99.90;;;;;;5056282;28;20170;-60
2021/09/03 06:29:42;;;;;;;9.90;8.87;;;15.10;99.90;;;;;;5055918;28;20644;-60
2021/09/03 06:32:15;;;;;;;11.33;10.13;;;15.10;99.90;;;;;;5056193;28;20392;-61
2021/09/03 06:34:43;;;;;;;10.60;9.47;;;15.20;99.90;;;;;;5055304;28;20436;-60
2021/09/03 06:37:09;;;;;;;11.47;9.97;;;15.30;99.90;;;;;;5056046;28;20406;-61
2021/09/03 06:39:36;;;;;;;11.23;10.00;;;15.40;99.90;;;;;;5055815;28;20781;-60
2021/09/03 06:42:03;;;;;;;10.60;9.50;;;15.60;99.90;;;;;;5055776;28;20396;-61
2021/09/03 06:44:29;;;;;;;13.07;9.50;;;15.60;99.90;;;;;;5055775;28;20433;-61
2021/09/03 06:46:55;;;;;;;12.90;9.70;;;15.70;99.90;;;;;;5055793;28;20413;-60
2021/09/03 06:49:20;;;;;;;10.40;9.13;;;15.80;99.90;;;;;;5055299;28;20542;-60
2021/09/03 06:51:46;;;;;;;10.70;9.60;;;15.90;99.90;;;;;;5055936;28;20828;-60
2021/09/03 06:54:12;;;;;;;11.83;10.63;;;16.00;99.90;;;;;;5055663;28;20292;-60
2021/09/03 06:56:37;;;;;;;14.13;12.20;;;16.10;99.90;;;;;;5055740;28;20165;-60
2021/09/03 06:59:03;;;;;;;13.03;11.23;;;16.20;99.90;;;;;;5055315;28;20192;-60
2021/09/03 07:01:29;;;;;;;12.93;11.00;;;16.10;99.90;;;;;;5055135;28;20626;-60
2021/09/03 07:03:55;;;;;;;11.67;10.57;;;16.00;99.90;;;;;;5055050;28;20195;-60
2021/09/03 07:06:20;;;;;;;11.03;9.83;;;16.10;99.90;;;;;;5054594;28;20490;-60
2021/09/03 07:08:46;;;;;;;11.30;10.10;;;16.20;99.90;;;;;;5055708;28;20239;-61
2021/09/03 07:11:12;;;;;;;10.80;9.70;;;16.20;99.90;;;;;;5055159;28;20533;-60
2021/09/03 07:13:37;;;;;;;10.10;8.77;;;16.50;99.90;;;;;;5055301;28;20218;-61
2021/09/03 07:16:03;;;;;;;10.53;9.53;;;16.60;99.90;;;;;;5055106;28;20207;-61
2021/09/03 07:18:29;;;;;;;10.50;9.33;;;16.80;99.90;;;;;;5054653;28;20249;-61
2021/09/03 07:20:55;;;;;;;10.70;9.63;;;16.90;99.90;;;;;;5054998;28;20455;-60
2021/09/03 07:23:20;;;;;;;10.00;8.97;;;17.10;99.90;;;;;;5054828;28;20193;-60
2021/09/03 07:25:46;;;;;;;9.53;8.60;;;17.30;99.90;;;;;;5055088;28;20312;-61
2021/09/03 07:28:12;;;;;;;9.80;8.77;;;17.50;99.90;;;;;;5054876;28;20229;-60
2021/09/03 07:30:38;;;;;;;9.33;8.40;;;17.60;99.90;;;;;;5054550;28;20170;-61
2021/09/03 07:33:03;;;;;;;9.50;8.07;;;17.70;99.90;;;;;;5054369;28;20266;-61
2021/09/03 07:35:29;;;;;;;11.70;9.30;;;17.80;99.90;;;;;;5055215;28;20424;-60
2021/09/03 07:37:56;;;;;;;11.50;9.40;;;17.70;99.90;;;;;;5054874;28;20166;-60
2021/09/03 07:40:22;;;;;;;9.33;8.37;;;17.80;99.90;;;;;;5054510;28;20191;-61
2021/09/03 07:42:48;;;;;;;10.30;9.30;;;17.90;99.90;;;;;;5054548;28;20400;-61
2021/09/03 07:45:13;;;;;;;9.10;8.20;;;17.90;99.90;;;;;;5053702;28;20448;-60
2021/09/03 07:47:39;;;;;;;9.37;8.40;;;18.00;99.90;;;;;;5054506;28;20178;-61
2021/09/03 07:50:05;;;;;;;11.00;9.90;;;18.20;99.90;;;;;;5054411;28;20167;-61
2021/09/03 07:52:31;;;;;;;10.60;8.53;;;17.90;99.90;;;;;;5054623;28;20217;-60
2021/09/03 07:54:56;;;;;;;10.60;8.50;;;18.10;99.90;;;;;;5054373;28;20460;-60
2021/09/03 07:57:22;;;;;;;10.27;9.27;;;18.40;99.90;;;;;;5069598;23;20230;-55
2021/09/03 07:59:48;;;;;;;9.50;8.50;;;18.40;99.90;;;;;;5003624;28;20606;-55
2021/09/03 08:02:13;;;;;;;10.83;9.77;;;18.20;99.90;;;;;;5014524;28;20187;-53
2021/09/03 08:04:39;;;;;;;9.97;9.00;;;18.20;99.90;;;;;;5014363;28;20298;-48
2021/09/03 08:07:04;;;;;;;8.70;7.80;;;18.30;99.90;;;;;;5013816;28;20195;-51
2021/09/03 08:09:30;;;;;;;12.23;8.97;;;18.60;99.90;;;;;;5013786;28;20164;-49
2021/09/03 08:11:56;;;;;;;10.50;8.50;;;18.30;99.90;;;;;;5014281;28;20358;-48
2021/09/03 08:14:21;;;;;;;9.83;8.83;;;18.50;99.90;;;;;;5013988;28;20316;-49
2021/09/03 08:16:47;;;;;;;9.70;8.80;;;18.50;99.90;;;;;;5013873;28;20539;-51
2021/09/03 08:19:12;;;;;;;9.50;8.50;;;18.60;99.90;;;;;;5014147;28;20756;-48
2021/09/03 08:21:38;;;;;;;9.83;8.93;;;18.50;99.90;;;;;;5014171;28;20629;-51
2021/09/03 08:24:04;;;;;;;9.10;8.20;;;18.50;99.90;;;;;;5014223;28;20164;-48
2021/09/03 08:26:30;;;;;;;10.13;9.03;;;18.50;99.90;;;;;;5013990;28;20230;-49
2021/09/03 08:28:56;;;;;;;10.30;9.30;;;18.60;99.90;;;;;;4997673;28;20431;-55
2021/09/03 08:31:23;;;;;;;9.97;8.50;;;18.70;99.90;;;;;;4994283;28;20172;-53
2021/09/03 08:33:49;;;;;;;8.23;7.37;;;18.80;99.90;;;;;;4994590;28;20161;-48
2021/09/03 08:36:15;;;;;;;8.77;7.97;;;19.00;99.90;;;;;;4994125;28;20403;-49
2021/09/03 08:38:41;;;;;;;9.33;7.90;;;19.20;99.90;;;;;;4994128;28;20435;-48
2021/09/03 08:41:07;;;;;;;12.50;9.00;;;19.20;99.90;;;;;;4976700;28;20408;-51
2021/09/03 08:43:32;;;;;;;9.70;8.67;;;19.10;99.90;;;;;;4994184;28;20161;-56
2021/09/03 08:45:58;;;;;;;9.10;8.20;;;19.00;99.90;;;;;;4994173;28;20885;-57
2021/09/03 08:48:25;;;;;;;9.27;7.43;;;19.10;99.90;;;;;;4993924;28;20191;-57
2021/09/03 08:50:54;;;;;;;9.60;8.60;;;19.10;99.90;;;;;;4994079;28;20542;-56
2021/09/03 08:53:22;;;;;;;9.30;8.30;;;18.90;99.90;;;;;;4993988;28;20499;-56
2021/09/03 08:55:51;;;;;;;8.93;8.03;;;19.00;99.90;;;;;;4993891;28;20486;-53
2021/09/03 08:58:17;;;;;;;8.17;7.37;;;19.20;99.90;;;;;;5003618;28;20462;-56
2021/09/03 09:00:44;;;;;;;14.70;8.33;;;19.40;99.90;;;;;;5013254;28;20824;-55
2021/09/03 09:03:15;;;;;;;8.87;8.07;;;19.40;99.90;;;;;;5013346;28;20418;-57
2021/09/03 09:05:47;;;;;;;9.73;8.00;;;19.50;99.90;;;;;;5013416;28;20411;-48
2021/09/03 09:08:13;;;;;;;9.87;8.20;;;19.50;99.90;;;;;;5013537;28;20426;-51
2021/09/03 09:10:46;;;;;;;8.60;7.60;;;19.40;99.90;;;;;;5013427;28;20406;-52
2021/09/03 09:13:17;;;;;;;9.27;8.37;;;19.50;99.90;;;;;;5013302;28;20172;-51
2021/09/03 09:16:07;;;;;;;8.97;8.07;;;19.70;99.90;;;;;;5013063;28;20513;-52
2021/09/03 09:18:39;;;;;;;11.50;7.87;;;20.00;99.90;;;;;;5013469;28;20423;-56
2021/09/03 09:21:29;;;;;;;9.47;8.27;;;19.90;99.90;;;;;;5013528;28;20423;-56
2021/09/03 09:24:11;;;;;;;8.80;7.90;;;19.90;99.90;;;;;;5013762;28;20415;-57
2021/09/03 09:26:55;;;;;;;8.90;8.10;;;19.90;99.90;;;;;;5013613;28;20395;-57
2021/09/03 09:29:24;;;;;;;9.50;8.60;;;20.10;99.90;;;;;;5014092;28;20414;-57
2021/09/03 09:31:56;;;;;;;8.50;7.70;;;20.20;99.90;;;;;;5017088;28;20968;-57
2021/09/03 09:34:24;;;;;;;8.57;7.50;;;20.20;99.90;;;;;;5017213;28;20396;-52
2021/09/03 09:36:53;;;;;;;8.97;8.07;;;20.20;99.90;;;;;;5017867;28;20950;-49
2021/09/03 09:39:20;;;;;;;7.70;7.00;;;20.10;99.90;;;;;;5018380;28;21029;-51
2021/09/03 09:41:55;;;;;;;8.73;7.83;;;20.10;99.90;;;;;;5017464;28;20407;-53
2021/09/03 09:44:30;;;;;;;8.97;7.60;;;20.20;99.90;;;;;;5016857;28;20395;-52
2021/09/03 09:47:07;;;;;;;8.53;7.73;;;20.30;99.90;;;;;;5016812;28;20379;-56
2021/09/03 09:49:34;;;;;;;8.10;7.30;;;20.10;99.90;;;;;;5017309;28;20383;-55
2021/09/03 09:52:00;;;;;;;8.30;7.50;;;20.20;99.90;;;;;;5016874;28;20442;-53
2021/09/03 09:54:26;;;;;;;7.30;6.60;;;20.40;99.90;;;;;;5016904;28;20414;-49
2021/09/03 09:57:03;;;;;;;6.73;6.13;;;20.60;99.90;;;;;;5016770;28;20199;-49
2021/09/03 09:59:31;;;;;;;7.43;6.70;;;20.70;99.90;;;;;;5016483;28;20192;-51
2021/09/03 10:02:00;;;;;;;9.37;8.50;;;20.80;99.90;;;;;;5016543;28;20410;-52
2021/09/03 10:04:28;;;;;;;8.90;7.20;;;20.80;99.90;;;;;;5016938;28;20406;-52
2021/09/03 10:07:00;;;;;;;7.77;7.00;;;21.00;99.90;;;;;;5017110;28;20541;-50
2021/09/03 10:09:27;;;;;;;7.60;6.73;;;21.10;99.90;;;;;;5016933;28;20879;-49
2021/09/03 10:11:55;;;;;;;7.30;6.60;;;21.20;99.90;;;;;;5016576;28;20489;-50
2021/09/03 10:14:27;;;;;;;8.80;8.00;;;21.20;99.90;;;;;;5016289;28;20399;-48
2021/09/03 10:16:54;;;;;;;7.80;6.80;;;21.30;99.90;;;;;;5016453;28;20880;-48
2021/09/03 10:19:30;;;;;;;7.70;7.00;;;21.50;99.90;;;;;;5016532;28;20478;-50
2021/09/03 10:22:05;;;;;;;8.67;7.87;;;21.50;99.90;;;;;;4999442;28;20466;-50
2021/09/03 10:24:31;;;;;;;8.60;7.60;;;21.60;99.90;;;;;;5016252;28;20456;-51
2021/09/03 10:26:58;;;;;;;7.90;7.20;;;21.50;99.90;;;;;;5016088;28;20402;-48
2021/09/03 10:29:34;;;;;;;8.33;7.53;;;21.50;99.90;;;;;;5015732;28;20183;-52
2021/09/03 10:32:10;;;;;;;8.63;7.73;;;21.80;99.90;;;;;;5016207;28;20423;-50
2021/09/03 10:34:50;;;;;;;8.40;7.17;;;21.90;99.90;;;;;;5016193;28;20413;-51
2021/09/03 10:37:15;;;;;;;8.80;7.53;;;21.90;99.90;;;;;;5000331;28;20478;-52
2021/09/03 10:39:41;;;;;;;8.10;6.93;;;22.10;99.90;;;;;;4996604;28;20480;-50
2021/09/03 10:42:08;;;;;;;8.30;7.43;;;22.20;99.90;;;;;;4995090;28;20697;-52
2021/09/03 10:45:01;;;;;;;10.40;8.63;;;22.30;99.90;;;;;;4996330;28;20168;-48
2021/09/03 10:47:46;;;;;;;7.33;6.73;;;22.70;99.90;;;;;;4995927;28;20424;-52
2021/09/03 10:50:16;;;;;;;9.83;8.27;;;24.20;99.90;;;;;;4996242;28;20384;-56
2021/09/03 10:53:07;;;;;;;7.83;7.03;;;25.40;99.90;;;;;;5005616;28;20399;-52
2021/09/03 10:55:57;;;;;;;8.33;7.53;;;26.90;99.20;;;;;;5015913;28;20748;-56
2021/09/03 10:58:41;;;;;;;6.90;6.30;;;26.90;97.90;;;;;;5004092;28;20456;-56
2021/09/03 11:01:10;;;;;;;6.67;5.97;;;27.70;96.80;;;;;;4995910;28;20507;-57
2021/09/03 11:03:37;;;;;;;8.37;7.17;;;29.10;94.90;;;;;;4996784;28;20404;-52
2021/09/03 11:06:02;;;;;;;7.20;6.60;;;28.50;94.30;;;;;;4996280;28;20400;-52
2021/09/03 11:08:37;;;;;;;6.90;6.20;;;29.20;93.60;;;;;;4995894;28;20428;-54
2021/09/03 11:11:26;;;;;;;6.93;6.17;;;30.10;91.60;;;;;;4996056;28;20255;-49
2021/09/03 11:14:10;;;;;;;8.30;6.80;;;29.70;91.80;;;;;;4995449;28;20462;-58
2021/09/03 11:16:47;;;;;;;6.70;6.13;;;30.00;90.20;;;;;;4995454;28;20395;-56
2021/09/03 11:19:21;;;;;;;7.00;6.40;;;29.20;91.40;;;;;;4995828;28;20475;-56
2021/09/03 11:21:49;;;;;;;6.47;5.87;;;30.20;90.40;;;;;;4995873;28;20401;-57
2021/09/03 11:24:18;;;;;;;6.90;6.20;;;31.30;88.10;;;;;;4995532;28;20463;-53
2021/09/03 11:26:44;;;;;;;6.40;5.90;;;31.40;85.20;;;;;;4995181;28;20415;-56
2021/09/03 11:29:24;;;;;;;6.83;5.73;;;31.20;85.70;;;;;;5012803;28;20524;-52
2021/09/03 11:31:59;;;;;;;6.83;6.23;;;31.70;85.80;;;;;;5015024;28;20915;-53
2021/09/03 11:34:50;;;;;;;8.60;5.67;;;32.40;83.10;;;;;;5015287;28;20462;-57
2021/09/03 11:37:49;;;;;;;6.00;5.47;;;32.70;78.50;;;;;;5015269;28;20418;-58
2021/09/03 11:40:23;;;;;;;8.77;7.20;;;33.50;78.10;;;;;;5015251;28;20839;-55
2021/09/03 11:43:01;;;;;;;8.10;6.93;;;34.30;72.10;;;;;;5014665;28;20910;-58
2021/09/03 11:45:38;;;;;;;6.17;5.67;;;34.20;70.90;;;;;;5014862;28;20383;-58
2021/09/03 11:48:09;;;;;;;7.53;5.43;;;33.80;75.10;;;;;;5015007;28;20423;-58
2021/09/03 11:50:42;;;;;;;6.30;5.70;;;32.00;74.30;;;;;;5015018;28;20753;-58
2021/09/03 11:53:18;;;;;;;5.17;4.77;;;31.80;74.40;;;;;;5014393;28;20388;-57
2021/09/03 11:55:46;;;;;;;6.43;5.83;;;32.30;74.90;;;;;;5014983;28;20390;-58
2021/09/03 11:58:23;;;;;;;6.83;5.50;;;32.80;73.30;;;;;;5014026;28;20454;-58
2021/09/03 12:00:54;;;;;;;6.00;5.50;;;33.90;71.80;;;;;;5014490;28;20442;-58
2021/09/03 12:03:27;;;;;;;8.37;6.10;;;34.20;70.30;;;;;;5014530;28;20460;-58
2021/09/03 12:05:54;;;;;;;6.33;5.37;;;34.70;68.10;;;;;;5014553;28;20383;-58
2021/09/03 12:08:23;;;;;;;6.50;5.43;;;33.80;70.80;;;;;;5014294;28;20431;-57
2021/09/03 12:11:05;;;;;;;6.13;5.53;;;33.90;67.10;;;;;;5015157;28;20407;-57
2021/09/03 12:13:43;;;;;;;7.50;6.40;;;34.50;67.20;;;;;;5014736;28;20758;-58
2021/09/03 12:16:13;;;;;;;5.00;4.60;;;35.20;65.90;;;;;;5014327;28;20469;-52
2021/09/03 12:18:41;;;;;;;5.50;5.00;;;35.30;64.40;;;;;;5014158;28;20473;-52
2021/09/03 12:21:14;;;;;;;5.53;5.10;;;34.10;64.80;;;;;;5014357;28;20403;-52
2021/09/03 12:23:43;;;;;;;5.70;5.23;;;32.50;66.40;;;;;;5014390;28;20386;-57
2021/09/03 12:26:11;;;;;;;5.90;5.40;;;33.90;67.70;;;;;;5014101;28;20938;-58
2021/09/03 12:28:38;;;;;;;5.80;5.30;;;35.10;62.30;;;;;;5013882;28;20435;-58
2021/09/03 12:31:09;;;;;;;6.23;5.60;;;34.40;64.10;;;;;;5013797;28;20958;-58
2021/09/03 12:33:35;;;;;;;5.80;5.30;;;34.90;65.80;;;;;;5014457;28;20379;-50
2021/09/03 12:36:07;;;;;;;6.20;5.60;;;35.90;61.10;;;;;;5001872;28;20418;-52
2021/09/03 12:38:43;;;;;;;6.30;5.70;;;36.40;60.10;;;;;;4994112;28;20965;-52
2021/09/03 12:41:19;;;;;;;6.03;5.53;;;35.30;62.60;;;;;;4994225;28;20423;-51
2021/09/03 12:43:50;;;;;;;5.60;5.10;;;34.50;63.80;;;;;;4993867;28;20384;-56
2021/09/03 12:46:17;;;;;;;5.33;4.83;;;35.10;62.20;;;;;;4994200;28;20384;-54